createdAt,value
2018-03-27T00:01:06.024Z,9.75
2018-03-27T00:03:33.406Z,9.60
2018-03-27T00:06:00.826Z,10.09
2018-03-27T00:08:28.223Z,9.68
2018-03-27T00:10:55.634Z,9.45
2018-03-27T00:13:23.546Z,9.96
2018-03-27T00:15:50.940Z,10.22
2018-03-27T00:18:18.323Z,10.39
2018-03-27T00:20:45.728Z,10.56
2018-03-27T00:23:13.173Z,10.50
2018-03-27T00:25:40.594Z,10.52
2018-03-27T00:28:19.820Z,10.19
2018-03-27T00:30:59.157Z,9.85
2018-03-27T00:33:38.298Z,10.18
2018-03-27T00:36:17.441Z,10.04
2018-03-27T00:38:56.560Z,10.23
2018-03-27T00:44:35.840Z,9.35
2018-03-27T00:47:03.222Z,9.25
2018-03-27T00:49:30.622Z,9.16
2018-03-27T00:51:58.010Z,9.35
2018-03-27T00:54:25.387Z,9.16
2018-03-27T00:56:53.753Z,9.08
2018-03-27T00:59:21.133Z,9.05
2018-03-27T01:01:48.601Z,9.63
2018-03-27T01:04:16.014Z,10.04
2018-03-27T01:06:43.414Z,10.16
2018-03-27T01:09:10.809Z,10.29
2018-03-27T01:11:38.203Z,10.08
2018-03-27T01:14:05.634Z,10.29
2018-03-27T01:16:33.037Z,9.95
2018-03-27T01:19:00.438Z,10.22
2018-03-27T01:21:27.847Z,10.49
2018-03-27T01:23:55.238Z,10.18
2018-03-27T01:26:22.694Z,10.05
2018-03-27T01:28:50.050Z,9.94
2018-03-27T01:31:17.444Z,10.57
2018-03-27T01:33:44.902Z,10.04
2018-03-27T01:36:12.297Z,9.85
2018-03-27T01:38:39.693Z,9.62
2018-03-27T01:41:07.116Z,9.65
2018-03-27T01:43:34.599Z,10.38
2018-03-27T01:46:02.006Z,10.03
2018-03-27T01:48:29.406Z,9.95
2018-03-27T01:50:56.829Z,9.81
2018-03-27T01:55:57.994Z,10.07
2018-03-27T01:58:25.386Z,9.89
2018-03-27T02:00:52.781Z,10.07
2018-03-27T02:03:20.239Z,9.75
2018-03-27T02:05:47.633Z,9.98
2018-03-27T02:08:15.029Z,9.88
2018-03-27T02:10:41.853Z,9.68
2018-03-27T02:13:14.892Z,8.99
2018-03-27T02:15:47.786Z,8.83
2018-03-27T02:18:20.682Z,8.92
2018-03-27T02:20:53.630Z,9.51
2018-03-27T02:23:22.261Z,9.80
2018-03-27T02:25:49.653Z,9.88
2018-03-27T02:28:17.057Z,9.95
2018-03-27T02:30:44.466Z,9.89
2018-03-27T02:33:11.863Z,9.72
2018-03-27T02:35:39.252Z,9.60
2018-03-27T02:38:06.648Z,9.36
2018-03-27T02:40:34.077Z,9.24
2018-03-27T02:43:01.477Z,8.89
2018-03-27T02:45:28.878Z,9.18
2018-03-27T02:47:56.299Z,9.38
2018-03-27T02:50:24.191Z,9.30
2018-03-27T02:52:51.603Z,9.16
2018-03-27T02:55:19.007Z,8.97
2018-03-27T02:57:46.390Z,9.00
2018-03-27T03:00:13.788Z,9.15
2018-03-27T03:02:41.203Z,8.58
2018-03-27T03:05:08.603Z,8.88
2018-03-27T03:07:36.019Z,9.24
2018-03-27T03:10:03.440Z,9.27
2018-03-27T03:12:30.843Z,8.98
2018-03-27T03:14:58.220Z,8.80
2018-03-27T03:17:25.642Z,9.19
2018-03-27T03:19:53.042Z,8.87
2018-03-27T03:22:20.454Z,8.96
2018-03-27T03:24:47.835Z,9.19
2018-03-27T03:27:15.234Z,8.97
2018-03-27T03:29:42.633Z,8.65
2018-03-27T03:32:10.033Z,8.83
2018-03-27T03:34:37.433Z,8.89
2018-03-27T03:37:04.828Z,8.94
2018-03-27T03:39:32.230Z,8.68
2018-03-27T03:41:59.636Z,8.29
2018-03-27T03:44:27.034Z,8.28
2018-03-27T03:46:54.508Z,8.11
2018-03-27T03:49:21.892Z,8.20
2018-03-27T03:51:49.295Z,8.35
2018-03-27T03:54:16.677Z,8.04
2018-03-27T03:56:44.087Z,8.26
2018-03-27T03:59:11.477Z,8.21
2018-03-27T04:01:38.865Z,8.21
2018-03-27T04:04:06.291Z,8.41
2018-03-27T04:06:33.694Z,8.00
2018-03-27T04:09:01.099Z,8.40
2018-03-27T04:11:28.490Z,8.36
2018-03-27T04:13:55.882Z,8.44
2018-03-27T04:16:23.276Z,8.44
2018-03-27T04:18:50.682Z,8.34
2018-03-27T04:21:18.071Z,8.25
2018-03-27T04:23:45.473Z,8.02
2018-03-27T04:26:12.885Z,8.23
2018-03-27T04:28:40.267Z,8.20
2018-03-27T04:31:07.663Z,8.12
2018-03-27T04:33:35.063Z,8.19
2018-03-27T04:36:02.462Z,8.03
2018-03-27T04:38:29.906Z,8.25
2018-03-27T04:40:57.320Z,7.98
2018-03-27T04:43:24.934Z,7.69
2018-03-27T04:45:52.327Z,7.87
2018-03-27T04:48:19.713Z,7.74
2018-03-27T04:50:47.104Z,7.84
2018-03-27T04:53:14.518Z,8.29
2018-03-27T04:55:42.285Z,8.21
2018-03-27T04:58:09.678Z,8.07
2018-03-27T05:00:37.086Z,8.07
2018-03-27T05:03:04.481Z,8.01
2018-03-27T05:05:31.890Z,7.57
2018-03-27T05:07:59.282Z,7.85
2018-03-27T05:10:27.107Z,8.32
2018-03-27T05:12:54.989Z,8.08
2018-03-27T05:15:22.388Z,7.84
2018-03-27T05:17:49.797Z,7.89
2018-03-27T05:20:17.198Z,7.92
2018-03-27T05:22:44.586Z,7.91
2018-03-27T05:25:11.989Z,8.39
2018-03-27T05:27:39.380Z,8.08
2018-03-27T05:30:06.796Z,8.18
2018-03-27T05:32:34.192Z,7.89
2018-03-27T05:35:01.634Z,8.22
2018-03-27T05:37:29.022Z,8.30
2018-03-27T05:39:56.397Z,8.20
2018-03-27T05:42:23.833Z,8.26
2018-03-27T05:44:51.224Z,8.32
2018-03-27T05:47:18.633Z,8.21
2018-03-27T05:49:46.034Z,8.17
2018-03-27T05:52:13.429Z,8.63
2018-03-27T05:54:40.822Z,8.57
2018-03-27T05:57:08.221Z,8.84
2018-03-27T05:59:35.652Z,8.90
2018-03-27T06:02:03.053Z,8.96
2018-03-27T06:04:30.456Z,8.70
2018-03-27T06:06:57.877Z,8.46
2018-03-27T06:09:25.265Z,8.41
2018-03-27T06:11:52.705Z,8.37
2018-03-27T06:14:20.104Z,8.23
2018-03-27T06:16:47.496Z,8.40
2018-03-27T06:19:14.885Z,8.30
2018-03-27T06:21:42.284Z,8.31
2018-03-27T06:24:09.760Z,8.27
2018-03-27T06:26:37.245Z,8.53
2018-03-27T06:29:04.640Z,8.68
2018-03-27T06:31:32.038Z,8.55
2018-03-27T06:33:59.433Z,8.81
2018-03-27T06:36:26.829Z,8.80
2018-03-27T06:38:54.237Z,8.77
2018-03-27T06:41:21.628Z,8.67
2018-03-27T06:43:49.037Z,8.44
2018-03-27T06:46:16.417Z,8.40
2018-03-27T06:48:43.823Z,8.60
2018-03-27T06:51:11.222Z,8.61
2018-03-27T06:53:38.593Z,8.48
2018-03-27T06:56:05.995Z,8.57
2018-03-27T06:58:33.385Z,8.85
2018-03-27T07:01:00.780Z,8.99
2018-03-27T07:03:28.168Z,8.92
2018-03-27T07:05:55.597Z,8.79
2018-03-27T07:08:22.953Z,8.77
2018-03-27T07:10:50.353Z,8.78
2018-03-27T07:13:17.749Z,8.98
2018-03-27T07:15:45.172Z,9.01
2018-03-27T07:18:12.567Z,9.22
2018-03-27T07:20:39.968Z,8.60
2018-03-27T07:23:07.348Z,8.45
2018-03-27T07:25:34.744Z,8.44
2018-03-27T07:28:02.138Z,8.50
2018-03-27T07:30:29.554Z,8.58
2018-03-27T07:32:56.940Z,8.50
2018-03-27T07:35:24.326Z,8.63
2018-03-27T07:37:51.733Z,8.86
2018-03-27T07:40:19.128Z,8.58
2018-03-27T07:42:46.530Z,8.48
2018-03-27T07:45:13.921Z,8.86
2018-03-27T07:47:41.311Z,8.80
2018-03-27T07:50:08.694Z,8.93
2018-03-27T07:52:36.096Z,9.13
2018-03-27T07:55:03.491Z,9.17
2018-03-27T07:57:30.876Z,9.78
2018-03-27T07:59:58.269Z,9.89
2018-03-27T08:02:25.717Z,9.78
2018-03-27T08:04:53.101Z,9.98
2018-03-27T08:07:20.534Z,10.39
2018-03-27T08:09:47.921Z,10.38
2018-03-27T08:12:15.330Z,10.32
2018-03-27T08:14:42.727Z,10.25
2018-03-27T08:17:10.150Z,10.75
2018-03-27T08:19:37.553Z,11.00
2018-03-27T08:22:04.937Z,10.77
2018-03-27T08:24:32.367Z,10.66
2018-03-27T08:26:59.732Z,11.10
2018-03-27T08:29:27.157Z,11.04
2018-03-27T08:31:54.545Z,10.83
2018-03-27T08:34:21.940Z,10.81
2018-03-27T08:36:49.334Z,10.77
2018-03-27T08:39:16.736Z,11.12
2018-03-27T08:41:44.124Z,10.79
2018-03-27T08:44:11.546Z,11.29
2018-03-27T08:46:38.937Z,11.42
2018-03-27T08:49:06.340Z,11.22
2018-03-27T08:51:33.730Z,11.13
2018-03-27T08:54:01.141Z,11.26
2018-03-27T08:56:28.528Z,11.61
2018-03-27T08:58:55.986Z,11.84
2018-03-27T09:01:23.396Z,11.46
2018-03-27T09:03:50.778Z,11.43
2018-03-27T09:06:18.246Z,11.17
2018-03-27T09:08:45.589Z,10.98
2018-03-27T09:11:12.993Z,10.97
2018-03-27T09:13:40.398Z,11.46
2018-03-27T09:16:07.807Z,11.61
2018-03-27T09:18:35.208Z,12.05
2018-03-27T09:21:02.612Z,11.73
2018-03-27T09:23:30.002Z,12.07
2018-03-27T09:25:57.409Z,12.43
2018-03-27T09:28:24.801Z,12.00
2018-03-27T09:30:52.202Z,11.80
2018-03-27T09:33:19.593Z,12.06
2018-03-27T09:35:46.989Z,12.26
2018-03-27T09:38:14.386Z,11.96
2018-03-27T09:40:41.786Z,11.78
2018-03-27T09:43:09.172Z,12.15
2018-03-27T09:45:36.596Z,12.44
2018-03-27T09:48:04.015Z,12.34
2018-03-27T09:50:31.409Z,12.33
2018-03-27T09:52:58.808Z,12.75
2018-03-27T09:55:26.245Z,12.61
2018-03-27T09:57:53.650Z,12.12
2018-03-27T10:00:26.553Z,11.86
2018-03-27T10:02:53.956Z,12.58
2018-03-27T10:05:21.345Z,12.62
2018-03-27T10:07:48.760Z,12.32
2018-03-27T10:10:16.168Z,12.56
2018-03-27T10:12:43.569Z,12.59
2018-03-27T10:15:10.974Z,12.47
2018-03-27T10:17:38.378Z,12.78
2018-03-27T10:20:05.785Z,13.07
2018-03-27T10:22:33.181Z,13.13
2018-03-27T10:25:00.590Z,13.06
2018-03-27T10:27:27.994Z,12.92
2018-03-27T10:29:56.369Z,12.72
2018-03-27T10:32:23.838Z,12.56
2018-03-27T10:34:51.240Z,12.62
2018-03-27T10:37:18.634Z,12.62
2018-03-27T10:39:46.038Z,12.77
2018-03-27T10:42:13.448Z,12.68
2018-03-27T10:44:40.861Z,12.76
2018-03-27T10:47:08.276Z,12.77
2018-03-27T10:49:35.691Z,13.11
2018-03-27T10:52:03.102Z,13.01
2018-03-27T10:54:30.509Z,13.02
2018-03-27T10:56:57.917Z,13.09
2018-03-27T10:59:25.341Z,13.41
2018-03-27T11:01:52.774Z,12.79
2018-03-27T11:04:20.169Z,12.75
2018-03-27T11:06:47.582Z,12.67
2018-03-27T11:09:14.993Z,12.38
2018-03-27T11:11:42.409Z,12.62
2018-03-27T11:14:09.841Z,12.54
2018-03-27T11:16:37.243Z,12.61
2018-03-27T11:19:04.649Z,12.63
2018-03-27T11:21:32.039Z,12.69
2018-03-27T11:23:59.436Z,12.68
2018-03-27T11:26:26.918Z,12.82
2018-03-27T11:28:54.338Z,12.80
2018-03-27T11:31:21.767Z,12.31
2018-03-27T11:33:49.149Z,12.37
2018-03-27T11:36:16.540Z,12.02
2018-03-27T11:38:43.927Z,12.33
2018-03-27T11:41:11.338Z,12.48
2018-03-27T11:43:38.716Z,12.56
2018-03-27T11:46:06.126Z,12.20
2018-03-27T11:48:34.566Z,12.34
2018-03-27T11:51:02.038Z,12.36
2018-03-27T11:53:29.420Z,12.13
2018-03-27T11:55:56.913Z,12.43
2018-03-27T11:58:24.315Z,12.62
2018-03-27T12:00:51.909Z,12.23
2018-03-27T12:03:19.296Z,12.46
2018-03-27T12:05:46.695Z,12.65
2018-03-27T12:08:14.121Z,12.28
2018-03-27T12:10:41.517Z,12.09
2018-03-27T12:13:08.913Z,12.12
2018-03-27T12:15:36.346Z,11.98
2018-03-27T12:18:03.739Z,11.91
2018-03-27T12:20:31.124Z,12.11
2018-03-27T12:22:58.521Z,11.86
2018-03-27T12:25:25.905Z,11.91
2018-03-27T12:27:53.325Z,11.72
2018-03-27T12:30:20.733Z,11.82
2018-03-27T12:32:48.149Z,12.33
2018-03-27T12:35:15.901Z,12.37
2018-03-27T12:37:43.327Z,12.78
2018-03-27T12:40:10.735Z,12.89
2018-03-27T12:42:38.145Z,13.20
2018-03-27T12:45:05.550Z,13.57
2018-03-27T12:47:32.969Z,13.50
2018-03-27T12:50:00.362Z,14.25
2018-03-27T12:52:27.841Z,15.23
2018-03-27T12:54:55.351Z,14.30
2018-03-27T12:57:22.809Z,15.53
2018-03-27T12:59:50.277Z,15.65
2018-03-27T13:02:17.609Z,15.94
2018-03-27T13:04:45.014Z,16.03
2018-03-27T13:07:12.415Z,16.85
2018-03-27T13:09:39.814Z,17.62
2018-03-27T13:12:07.206Z,17.67
2018-03-27T13:14:34.595Z,19.60
2018-03-27T13:17:01.987Z,16.49
2018-03-27T13:19:30.231Z,16.08
2018-03-27T13:21:57.911Z,16.41
2018-03-27T13:24:25.347Z,15.98
2018-03-27T13:26:52.741Z,16.25
2018-03-27T13:29:20.154Z,16.02
2018-03-27T13:31:47.568Z,16.68
2018-03-27T13:34:15.142Z,16.81
2018-03-27T13:36:42.652Z,18.82
2018-03-27T13:39:10.043Z,17.66
2018-03-27T13:41:37.451Z,17.15
2018-03-27T13:44:04.853Z,17.98
2018-03-27T13:46:32.235Z,17.87
2018-03-27T13:48:59.618Z,17.55
2018-03-27T13:51:27.401Z,18.12
2018-03-27T13:53:54.814Z,17.49
2018-03-27T13:56:22.203Z,16.45
2018-03-27T13:58:49.603Z,16.37
2018-03-27T14:01:17.011Z,16.81
2018-03-27T14:03:44.422Z,16.98
2018-03-27T14:06:11.829Z,16.95
2018-03-27T14:08:39.230Z,16.49
2018-03-27T14:11:06.630Z,17.31
2018-03-27T14:13:34.022Z,16.98
2018-03-27T14:16:01.433Z,16.28
2018-03-27T14:18:28.825Z,15.65
2018-03-27T14:20:56.262Z,15.32
2018-03-27T14:23:23.667Z,15.13
2018-03-27T14:25:51.059Z,15.00
2018-03-27T14:28:18.458Z,14.65
2018-03-27T14:30:45.837Z,14.22
2018-03-27T14:33:13.241Z,14.09
2018-03-27T14:35:41.625Z,14.07
2018-03-27T14:38:09.031Z,13.74
2018-03-27T14:40:36.457Z,14.10
2018-03-27T14:43:03.857Z,13.86
2018-03-27T14:45:31.253Z,14.01
2018-03-27T14:47:58.681Z,14.06
2018-03-27T14:50:26.081Z,13.49
2018-03-27T14:52:53.556Z,13.40
2018-03-27T14:55:20.942Z,13.67
2018-03-27T14:57:48.348Z,13.47
2018-03-27T15:00:15.739Z,13.93
2018-03-27T15:02:43.137Z,14.15
2018-03-27T15:05:11.470Z,14.02
2018-03-27T15:07:38.885Z,13.69
2018-03-27T15:10:10.094Z,13.76
2018-03-27T15:12:37.450Z,13.58
2018-03-27T15:15:04.854Z,13.77
2018-03-27T15:17:32.257Z,13.65
2018-03-27T15:20:00.418Z,13.85
2018-03-27T15:22:27.801Z,13.92
2018-03-27T15:24:55.221Z,13.87
2018-03-27T15:27:23.618Z,13.61
2018-03-27T15:29:50.993Z,13.55
2018-03-27T15:32:18.395Z,13.60
2018-03-27T15:34:45.789Z,13.59
2018-03-27T15:37:13.173Z,13.46
2018-03-27T15:39:40.610Z,13.64
2018-03-27T15:42:08.000Z,13.47
2018-03-27T15:44:35.414Z,13.31
2018-03-27T15:47:02.813Z,13.18
2018-03-27T15:49:30.209Z,13.13
2018-03-27T15:51:57.978Z,13.08
2018-03-27T15:54:25.395Z,13.45
2018-03-27T15:56:52.852Z,13.08
2018-03-27T15:59:20.278Z,12.65
2018-03-27T16:01:47.683Z,12.75
2018-03-27T16:04:15.078Z,12.81
2018-03-27T16:06:42.485Z,12.74
2018-03-27T16:09:09.878Z,12.67
2018-03-27T16:11:37.339Z,12.56
2018-03-27T16:14:04.677Z,12.50
2018-03-27T16:16:32.081Z,12.37
2018-03-27T16:18:59.468Z,12.55
2018-03-27T16:21:26.862Z,12.81
2018-03-27T16:23:54.262Z,12.54
2018-03-27T16:26:21.653Z,12.64
2018-03-27T16:28:49.037Z,12.15
2018-03-27T16:31:16.449Z,12.27
2018-03-27T16:33:43.843Z,12.47
2018-03-27T16:36:11.233Z,12.32
2018-03-27T16:38:38.641Z,12.17
2018-03-27T16:41:06.105Z,12.42
2018-03-27T16:43:33.543Z,12.47
2018-03-27T16:46:00.892Z,12.30
2018-03-27T16:48:28.294Z,12.40
2018-03-27T16:50:55.686Z,12.55
2018-03-27T16:53:23.090Z,11.99
2018-03-27T16:55:50.474Z,12.22
2018-03-27T16:58:17.979Z,12.15
2018-03-27T17:00:45.616Z,11.88
2018-03-27T17:03:13.014Z,11.81
2018-03-27T17:05:40.567Z,12.06
2018-03-27T17:08:07.992Z,11.71
2018-03-27T17:10:35.389Z,11.93
2018-03-27T17:13:02.992Z,11.91
2018-03-27T17:15:30.547Z,12.18
2018-03-27T17:17:58.425Z,11.89
2018-03-27T17:20:25.811Z,12.09
2018-03-27T17:22:53.240Z,12.01
2018-03-27T17:25:20.638Z,11.78
2018-03-27T17:27:48.027Z,11.92
2018-03-27T17:30:15.425Z,11.89
2018-03-27T17:32:42.817Z,11.65
2018-03-27T17:35:10.214Z,11.70
2018-03-27T17:37:38.624Z,11.59
2018-03-27T17:40:06.050Z,11.79
2018-03-27T17:42:34.342Z,11.65
2018-03-27T17:45:01.737Z,11.88
2018-03-27T17:47:29.141Z,11.51
2018-03-27T17:49:56.541Z,11.37
2018-03-27T17:52:23.918Z,11.54
2018-03-27T17:54:51.329Z,11.98
2018-03-27T17:57:18.741Z,12.12
2018-03-27T17:59:47.230Z,12.23
2018-03-27T18:02:14.566Z,12.06
2018-03-27T18:04:41.970Z,11.91
2018-03-27T18:07:09.507Z,11.56
2018-03-27T18:09:36.942Z,11.93
2018-03-27T18:12:04.326Z,11.69
2018-03-27T18:14:31.752Z,11.61
2018-03-27T18:16:59.193Z,11.40
2018-03-27T18:19:26.604Z,11.65
2018-03-27T18:21:54.026Z,11.55
2018-03-27T18:24:21.425Z,11.36
2018-03-27T18:26:48.844Z,11.60
2018-03-27T18:29:16.415Z,11.97
2018-03-27T18:31:43.821Z,11.60
2018-03-27T18:34:11.200Z,11.60
2018-03-27T18:36:38.626Z,11.36
2018-03-27T18:39:06.014Z,11.58
2018-03-27T18:41:33.418Z,11.43
2018-03-27T18:44:00.824Z,11.65
2018-03-27T18:46:28.683Z,11.16
2018-03-27T18:48:56.089Z,11.35
2018-03-27T18:51:23.476Z,11.09
2018-03-27T18:53:50.861Z,11.12
2018-03-27T18:56:18.258Z,11.39
2018-03-27T18:58:45.643Z,11.48
2018-03-27T19:01:13.051Z,11.38
2018-03-27T19:03:40.435Z,11.30
2018-03-27T19:06:07.825Z,11.62
2018-03-27T19:08:35.262Z,11.45
2018-03-27T19:11:02.662Z,11.35
2018-03-27T19:13:30.055Z,11.51
2018-03-27T19:15:57.605Z,11.11
2018-03-27T19:18:25.287Z,11.37
2018-03-27T19:20:52.685Z,11.07
2018-03-27T19:23:20.079Z,11.20
2018-03-27T19:25:47.609Z,10.57
2018-03-27T19:28:15.012Z,10.25
2018-03-27T19:30:42.396Z,10.15
2018-03-27T19:33:09.794Z,10.41
2018-03-27T19:35:37.239Z,10.27
2018-03-27T19:38:04.687Z,10.35
2018-03-27T19:40:32.156Z,10.57
2018-03-27T19:42:59.604Z,10.26
2018-03-27T19:45:26.972Z,10.20
2018-03-27T19:47:54.598Z,9.86
2018-03-27T19:50:21.987Z,9.99
2018-03-27T19:52:50.368Z,9.64
2018-03-27T19:55:17.802Z,9.89
2018-03-27T19:57:45.202Z,10.24
2018-03-27T20:00:12.598Z,9.99
2018-03-27T20:02:39.979Z,9.68
2018-03-27T20:05:07.362Z,9.58
2018-03-27T20:07:34.787Z,9.69
2018-03-27T20:10:02.191Z,9.59
2018-03-27T20:12:29.581Z,9.55
2018-03-27T20:14:56.975Z,9.72
2018-03-27T20:17:24.363Z,9.91
2018-03-27T20:19:51.762Z,9.93
2018-03-27T20:22:19.145Z,9.69
2018-03-27T20:24:46.545Z,9.87
2018-03-27T20:27:13.934Z,9.98
2018-03-27T20:29:41.334Z,9.82
2018-03-27T20:32:08.749Z,9.83
2018-03-27T20:34:36.131Z,9.79
2018-03-27T20:37:03.589Z,10.02
2018-03-27T20:39:30.961Z,9.77
2018-03-27T20:41:59.357Z,9.67
2018-03-27T20:44:26.755Z,9.82
2018-03-27T20:46:54.145Z,9.97
2018-03-27T20:49:21.525Z,9.92
2018-03-27T20:51:48.923Z,9.88
2018-03-27T20:54:16.301Z,10.14
2018-03-27T20:56:43.698Z,9.82
2018-03-27T20:59:11.094Z,9.71
2018-03-27T21:01:38.486Z,9.67
2018-03-27T21:04:05.899Z,9.74
2018-03-27T21:06:33.279Z,9.94
2018-03-27T21:09:00.660Z,10.04
2018-03-27T21:11:28.058Z,9.77
2018-03-27T21:13:55.434Z,9.58
2018-03-27T21:16:22.815Z,9.78
2018-03-27T21:18:50.214Z,9.81
2018-03-27T21:21:17.594Z,9.63
2018-03-27T21:23:44.985Z,9.70
2018-03-27T21:26:12.379Z,9.29
2018-03-27T21:28:39.766Z,9.09
2018-03-27T21:31:07.147Z,9.38
2018-03-27T21:33:34.536Z,9.36
2018-03-27T21:36:01.922Z,9.26
2018-03-27T21:38:29.540Z,9.28
2018-03-27T21:40:56.925Z,9.45
2018-03-27T21:43:24.317Z,9.24
2018-03-27T21:45:51.726Z,9.34
2018-03-27T21:48:19.100Z,9.46
2018-03-27T21:50:46.507Z,9.36
2018-03-27T21:53:13.908Z,9.27
2018-03-27T21:55:41.296Z,9.46
2018-03-27T21:58:08.689Z,9.14
2018-03-27T22:00:36.083Z,9.50
2018-03-27T22:03:03.474Z,9.41
2018-03-27T22:05:30.855Z,9.57
2018-03-27T22:07:58.232Z,9.56
2018-03-27T22:10:25.622Z,9.70
2018-03-27T22:12:53.010Z,9.50
2018-03-27T22:15:20.395Z,9.42
2018-03-27T22:17:47.778Z,9.24
2018-03-27T22:20:15.165Z,9.31
2018-03-27T22:22:42.559Z,8.85
2018-03-27T22:25:09.942Z,8.92
2018-03-27T22:27:37.349Z,8.97
2018-03-27T22:30:05.695Z,8.94
2018-03-27T22:32:33.140Z,8.67
2018-03-27T22:35:00.505Z,8.78
2018-03-27T22:37:27.881Z,8.94
2018-03-27T22:39:55.278Z,9.21
2018-03-27T22:42:22.681Z,8.92
2018-03-27T22:44:50.093Z,8.66
2018-03-27T22:47:17.463Z,8.69
2018-03-27T22:49:44.846Z,8.79
2018-03-27T22:52:12.242Z,8.68
2018-03-27T22:54:39.630Z,8.70
2018-03-27T22:57:07.012Z,8.69
2018-03-27T22:59:34.394Z,8.69
2018-03-27T23:02:01.794Z,8.78
2018-03-27T23:04:29.952Z,8.70
2018-03-27T23:06:57.332Z,8.75
2018-03-27T23:09:24.732Z,8.91
2018-03-27T23:11:52.109Z,8.74
2018-03-27T23:14:19.497Z,9.04
2018-03-27T23:16:46.880Z,8.99
2018-03-27T23:19:14.265Z,8.92
2018-03-27T23:21:41.669Z,8.81
2018-03-27T23:24:09.041Z,9.00
2018-03-27T23:26:36.468Z,8.84
2018-03-27T23:29:03.854Z,8.82
2018-03-27T23:31:31.224Z,8.84
2018-03-27T23:33:58.613Z,9.01
2018-03-27T23:36:26.005Z,9.00
2018-03-27T23:38:53.470Z,8.89
2018-03-27T23:41:20.856Z,9.02
2018-03-27T23:43:48.254Z,8.92
2018-03-27T23:46:15.640Z,8.93
2018-03-27T23:48:43.042Z,9.00
2018-03-27T23:51:10.405Z,9.12
2018-03-27T23:53:37.814Z,9.05
2018-03-27T23:56:05.196Z,9.12
2018-03-27T23:58:32.597Z,9.07
